Time;durP1;ratioP1;P1;durP2;ratioP2;P2;SDS_P1;SDS_P2;PMS_P1;PMS_P2;Temp;Humidity;BMP_temperature;BMP_pressure;BME280_temperature;BME280_humidity;BME280_pressure;Samples;Min_cycle;Max_cycle;Signal;HPM_P1;HPM_P2
2023/06/25 00:01:30;;;;;;;;;;;19.00;99.90;;;;;;5038081;28;19921;-48
2023/06/25 00:03:56;;;;;;;;;;;19.00;99.90;;;;;;5038107;28;19925;-48
2023/06/25 00:06:22;;;;;;;;;;;18.90;99.90;;;;;;5055654;28;19920;-48
2023/06/25 00:08:48;;;;;;;;;;;19.00;99.90;;;;;;5055753;28;19921;-50
2023/06/25 00:11:13;;;;;;;;;;;19.00;99.90;;;;;;5055726;28;19968;-49
2023/06/25 00:13:39;;;;;;;;;;;19.00;99.90;;;;;;5055592;28;19975;-49
2023/06/25 00:16:05;;;;;;;;;;;18.90;99.90;;;;;;5055514;28;19921;-48
2023/06/25 00:18:33;;;;;;;;;;;18.90;99.90;;;;;;5055391;28;19921;-48
2023/06/25 00:20:58;;;;;;;;;;;18.90;99.90;;;;;;5021476;28;20367;-50
2023/06/25 00:23:24;;;;;;;;;;;18.90;99.90;;;;;;5055780;28;19925;-49
2023/06/25 00:25:50;;;;;;;;;;;19.00;99.90;;;;;;5055620;28;19979;-49
2023/06/25 00:28:16;;;;;;;;;;;18.90;99.90;;;;;;5055199;28;20007;-48
2023/06/25 00:30:41;;;;;;;;;;;18.90;99.90;;;;;;5054610;28;20068;-49
2023/06/25 00:33:07;;;;;;;;;;;18.90;99.90;;;;;;5055123;28;20271;-48
2023/06/25 00:35:43;;;;;;;;;;;18.90;99.90;;;;;;5055291;28;19921;-48
2023/06/25 00:38:09;;;;;;;;;;;18.80;99.90;;;;;;5055095;28;19968;-48
2023/06/25 00:40:35;;;;;;;;;;;18.80;99.90;;;;;;5037279;28;19975;-49
2023/06/25 00:43:01;;;;;;;;;;;18.80;99.90;;;;;;5055086;28;19950;-49
2023/06/25 00:45:26;;;;;;;;;;;18.70;99.90;;;;;;5054878;28;19921;-49
2023/06/25 00:47:52;;;;;;;;;;;18.60;99.90;;;;;;5036687;28;20276;-49
2023/06/25 00:50:24;;;;;;;;;;;18.60;99.90;;;;;;5054905;28;19920;-49
2023/06/25 00:52:51;;;;;;;;;;;18.60;99.90;;;;;;5054828;28;19921;-50
2023/06/25 00:55:17;;;;;;;;;;;18.60;99.90;;;;;;5054638;28;19921;-49
2023/06/25 00:57:43;;;;;;;;;;;18.50;99.90;;;;;;5054551;28;20363;-48
2023/06/25 01:00:19;;;;;;;;;;;18.50;99.90;;;;;;5036901;28;19920;-48
2023/06/25 01:02:50;;;;;;;;;;;18.40;99.90;;;;;;5054827;28;19925;-48
2023/06/25 01:05:22;;;;;;;;;;;18.40;99.90;;;;;;5054595;28;20386;-49
2023/06/25 01:07:48;;;;;;;;;;;18.40;99.90;;;;;;5054653;28;19920;-48
2023/06/25 01:10:14;;;;;;;;;;;18.40;99.90;;;;;;5054419;28;19921;-49
2023/06/25 01:12:40;;;;;;;;;;;18.30;99.90;;;;;;5054260;28;19921;-48
2023/06/25 01:15:06;;;;;;;;;;;18.30;99.90;;;;;;5036708;28;19920;-48
2023/06/25 01:17:32;;;;;;;;;;;18.30;99.90;;;;;;5037492;28;19932;-48
2023/06/25 01:19:58;;;;;;;;;;;18.30;99.90;;;;;;5054230;28;19921;-48
2023/06/25 01:22:30;;;;;;;;;;;18.30;99.90;;;;;;5054562;28;19969;-49
2023/06/25 01:24:56;;;;;;;;;;;18.30;99.90;;;;;;5054216;28;19967;-48
2023/06/25 01:27:22;;;;;;;;;;;18.30;99.90;;;;;;5054074;28;19921;-48
2023/06/25 01:29:48;;;;;;;;;;;18.30;99.90;;;;;;5054303;28;20030;-49
2023/06/25 01:32:14;;;;;;;;;;;18.30;99.90;;;;;;5054137;28;20325;-48
2023/06/25 01:34:40;;;;;;;;;;;18.30;99.90;;;;;;5054200;28;19920;-48
2023/06/25 01:37:06;;;;;;;;;;;18.30;99.90;;;;;;5053940;28;20015;-48
2023/06/25 01:39:32;;;;;;;;;;;18.30;99.90;;;;;;5054231;28;19932;-48
2023/06/25 01:41:58;;;;;;;;;;;18.30;99.90;;;;;;5053185;28;20501;-48
2023/06/25 01:44:32;;;;;;;;;;;18.20;99.90;;;;;;5053970;28;20019;-47
2023/06/25 01:46:58;;;;;;;;;;;18.20;99.90;;;;;;5054424;28;19920;-48
2023/06/25 01:49:24;;;;;;;;;;;18.10;99.90;;;;;;5054053;28;20278;-48
2023/06/25 01:51:50;;;;;;;;;;;18.10;99.90;;;;;;5053830;28;19928;-48
2023/06/25 01:54:15;;;;;;;;;;;18.00;99.90;;;;;;5053912;28;19924;-48
2023/06/25 01:56:42;;;;;;;;;;;18.00;99.90;;;;;;5053697;28;19987;-49
2023/06/25 01:59:07;;;;;;;;;;;17.90;99.90;;;;;;5053778;28;19967;-48
2023/06/25 02:01:33;;;;;;;;;;;17.90;99.90;;;;;;5053831;28;19920;-47
2023/06/25 02:03:59;;;;;;;;;;;17.80;99.90;;;;;;5053883;28;20367;-47
2023/06/25 02:06:24;;;;;;;;;;;17.80;99.90;;;;;;5053858;28;19976;-48
2023/06/25 02:08:50;;;;;;;;;;;17.70;99.90;;;;;;5053765;28;19921;-48
2023/06/25 02:11:15;;;;;;;;;;;17.70;99.90;;;;;;5053763;28;19921;-48
2023/06/25 02:13:41;;;;;;;;;;;17.60;99.90;;;;;;5054019;28;19921;-48
2023/06/25 02:16:06;;;;;;;;;;;17.60;99.90;;;;;;5053784;28;20285;-47
2023/06/25 02:18:32;;;;;;;;;;;17.60;99.90;;;;;;5053770;28;19924;-48
2023/06/25 02:20:58;;;;;;;;;;;17.60;99.90;;;;;;5053828;28;19927;-47
2023/06/25 02:23:23;;;;;;;;;;;17.60;99.90;;;;;;5053696;28;19925;-47
2023/06/25 02:25:50;;;;;;;;;;;17.60;99.90;;;;;;5053468;28;19921;-47
2023/06/25 02:28:16;;;;;;;;;;;17.60;99.90;;;;;;5053738;28;19923;-48
2023/06/25 02:30:41;;;;;;;;;;;17.60;99.90;;;;;;5053688;28;19921;-48
2023/06/25 02:33:07;;;;;;;;;;;17.60;99.90;;;;;;5053533;28;20434;-48
2023/06/25 02:35:33;;;;;;;;;;;17.60;99.90;;;;;;5053481;28;19967;-47
2023/06/25 02:37:58;;;;;;;;;;;17.60;99.90;;;;;;5053478;28;19928;-48
2023/06/25 02:40:24;;;;;;;;;;;17.60;99.90;;;;;;5053438;28;19971;-48
2023/06/25 02:42:50;;;;;;;;;;;17.60;99.90;;;;;;5053980;28;20283;-48
2023/06/25 02:45:15;;;;;;;;;;;17.60;99.90;;;;;;5053576;28;20015;-48
2023/06/25 02:47:41;;;;;;;;;;;17.60;99.90;;;;;;5053441;28;19920;-50
2023/06/25 02:50:07;;;;;;;;;;;17.60;99.90;;;;;;5053360;28;19928;-49
2023/06/25 02:52:32;;;;;;;;;;;17.60;99.90;;;;;;5053438;28;19931;-48
2023/06/25 02:54:58;;;;;;;;;;;17.60;99.90;;;;;;5038582;28;19928;-48
2023/06/25 02:57:25;;;;;;;;;;;17.60;99.90;;;;;;5056872;28;19924;-48
2023/06/25 02:59:51;;;;;;;;;;;17.60;99.90;;;;;;5056868;28;19942;-48
2023/06/25 03:02:16;;;;;;;;;;;17.60;99.90;;;;;;5039256;28;20297;-49
2023/06/25 03:04:42;;;;;;;;;;;17.60;99.90;;;;;;5056963;28;19932;-48
2023/06/25 03:07:07;;;;;;;;;;;17.60;99.90;;;;;;5056906;28;20015;-48
2023/06/25 03:09:33;;;;;;;;;;;17.60;99.90;;;;;;5057321;28;19951;-47
2023/06/25 03:11:59;;;;;;;;;;;17.50;99.90;;;;;;5056802;28;19920;-47
2023/06/25 03:14:24;;;;;;;;;;;17.50;99.90;;;;;;5056957;28;19921;-48
2023/06/25 03:16:50;;;;;;;;;;;17.50;99.90;;;;;;5056744;28;19920;-47
2023/06/25 03:19:15;;;;;;;;;;;17.50;99.90;;;;;;5056722;28;19921;-48
2023/06/25 03:21:41;;;;;;;;;;;17.50;99.90;;;;;;5039210;28;19932;-48
2023/06/25 03:24:06;;;;;;;;;;;17.40;99.90;;;;;;5056374;28;19920;-48
2023/06/25 03:26:32;;;;;;;;;;;17.40;99.90;;;;;;5057115;28;20426;-49
2023/06/25 03:28:58;;;;;;;;;;;17.40;99.90;;;;;;5056780;28;19944;-48
2023/06/25 03:31:24;;;;;;;;;;;17.40;99.90;;;;;;5056654;28;19925;-49
2023/06/25 03:33:49;;;;;;;;;;;17.30;99.90;;;;;;5056257;28;20385;-48
2023/06/25 03:36:15;;;;;;;;;;;17.30;99.90;;;;;;5056419;28;19925;-48
2023/06/25 03:38:40;;;;;;;;;;;17.30;99.90;;;;;;5056280;28;19927;-48
2023/06/25 03:41:06;;;;;;;;;;;17.30;99.90;;;;;;5039148;28;19968;-49
2023/06/25 03:43:31;;;;;;;;;;;17.20;99.90;;;;;;5056240;28;20371;-48
2023/06/25 03:45:57;;;;;;;;;;;17.20;99.90;;;;;;5056188;28;19920;-48
2023/06/25 03:48:22;;;;;;;;;;;17.10;99.90;;;;;;5056058;28;19921;-47
2023/06/25 03:50:48;;;;;;;;;;;17.10;99.90;;;;;;5056128;28;19927;-48
2023/06/25 03:53:15;;;;;;;;;;;17.10;99.90;;;;;;5037974;28;19925;-47
2023/06/25 03:55:40;;;;;;;;;;;17.10;99.90;;;;;;5055783;28;19943;-48
2023/06/25 03:58:06;;;;;;;;;;;17.20;99.90;;;;;;5056217;28;19920;-47
2023/06/25 04:00:31;;;;;;;;;;;17.20;99.90;;;;;;5055876;28;19931;-48
2023/06/25 04:02:57;;;;;;;;;;;17.20;99.90;;;;;;5038269;28;20015;-48
2023/06/25 04:05:22;;;;;;;;;;;17.20;99.90;;;;;;5054698;28;19924;-48
2023/06/25 04:07:48;;;;;;;;;;;17.20;99.90;;;;;;5037849;28;19987;-48
2023/06/25 04:10:14;;;;;;;;;;;17.30;99.90;;;;;;5055567;28;19920;-48
2023/06/25 04:12:40;;;;;;;;;;;17.20;99.90;;;;;;5055571;28;19955;-48
2023/06/25 04:15:05;;;;;;;;;;;17.30;99.90;;;;;;5055572;28;19925;-48
2023/06/25 04:17:31;;;;;;;;;;;17.30;99.90;;;;;;5055631;28;19921;-49
2023/06/25 04:19:56;;;;;;;;;;;17.30;99.90;;;;;;5055462;28;19921;-47
2023/06/25 04:22:22;;;;;;;;;;;17.30;99.90;;;;;;5038056;28;20011;-47
2023/06/25 04:24:47;;;;;;;;;;;17.30;99.90;;;;;;5055360;28;19932;-47
2023/06/25 04:27:13;;;;;;;;;;;17.30;99.90;;;;;;5055451;28;20330;-48
2023/06/25 04:29:39;;;;;;;;;;;17.30;99.90;;;;;;5037875;28;20360;-48
2023/06/25 04:32:04;;;;;;;;;;;17.40;99.90;;;;;;5055284;28;19920;-47
2023/06/25 04:34:30;;;;;;;;;;;17.40;99.90;;;;;;5055219;28;19947;-47
2023/06/25 04:36:55;;;;;;;;;;;17.40;99.90;;;;;;5055132;28;19920;-47
2023/06/25 04:39:21;;;;;;;;;;;17.50;99.90;;;;;;5055172;28;19920;-47
2023/06/25 04:41:47;;;;;;;;;;;17.50;99.90;;;;;;5055203;28;20322;-48
2023/06/25 04:44:12;;;;;;;;;;;17.60;99.90;;;;;;5055072;28;19932;-47
2023/06/25 04:46:38;;;;;;;;;;;17.60;99.90;;;;;;5055108;28;19921;-48
2023/06/25 04:49:03;;;;;;;;;;;17.70;99.90;;;;;;5054949;28;20287;-47
2023/06/25 04:51:29;;;;;;;;;;;17.70;99.90;;;;;;5054919;28;19921;-48
2023/06/25 04:53:54;;;;;;;;;;;17.80;99.90;;;;;;5054600;28;19928;-47
2023/06/25 04:56:20;;;;;;;;;;;17.80;99.90;;;;;;5054899;28;19921;-48
2023/06/25 04:58:45;;;;;;;;;;;17.90;99.90;;;;;;5054803;28;19968;-48
2023/06/25 05:01:11;;;;;;;;;;;18.00;99.90;;;;;;5054804;28;20319;-47
2023/06/25 05:03:37;;;;;;;;;;;18.00;99.90;;;;;;5054759;28;19920;-47
2023/06/25 05:06:02;;;;;;;;;;;18.10;99.90;;;;;;5054669;28;20009;-48
2023/06/25 05:08:28;;;;;;;;;;;18.10;99.90;;;;;;5054573;28;20455;-48
2023/06/25 05:10:53;;;;;;;;;;;18.20;99.90;;;;;;5054841;28;20275;-47
2023/06/25 05:13:19;;;;;;;;;;;18.30;99.90;;;;;;5054475;28;19920;-47
2023/06/25 05:15:44;;;;;;;;;;;18.40;99.90;;;;;;5054365;28;19978;-47
2023/06/25 05:18:10;;;;;;;;;;;18.60;99.90;;;;;;5054715;28;19928;-47
2023/06/25 05:20:37;;;;;;;;;;;18.80;99.90;;;;;;5054358;28;20367;-47
2023/06/25 05:23:03;;;;;;;;;;;19.40;99.90;;;;;;5036703;28;20015;-47
2023/06/25 05:25:29;;;;;;;;;;;19.90;99.90;;;;;;5037392;28;19921;-48
2023/06/25 05:27:54;;;;;;;;;;;19.90;99.90;;;;;;5036656;28;20428;-47
2023/06/25 05:30:20;;;;;;;;;;;19.90;99.90;;;;;;5054342;28;19920;-48
2023/06/25 05:32:45;;;;;;;;;;;19.80;99.90;;;;;;5054053;28;19921;-47
2023/06/25 05:35:11;;;;;;;;;;;19.90;99.90;;;;;;5036742;28;19922;-48
2023/06/25 05:37:36;;;;;;;;;;;19.90;99.90;;;;;;5054121;28;19920;-48
2023/06/25 05:40:02;;;;;;;;;;;19.90;99.90;;;;;;5054175;28;20035;-48
2023/06/25 05:42:29;;;;;;;;;;;20.00;99.90;;;;;;5054198;28;19921;-48
2023/06/25 05:44:54;;;;;;;;;;;20.10;99.90;;;;;;5054207;28;19921;-48
2023/06/25 05:47:20;;;;;;;;;;;20.10;99.90;;;;;;5054174;28;20364;-48
2023/06/25 05:49:45;;;;;;;;;;;20.20;99.90;;;;;;5053919;28;20349;-48
2023/06/25 05:52:11;;;;;;;;;;;20.20;99.90;;;;;;5053736;28;19921;-47
2023/06/25 05:54:36;;;;;;;;;;;20.20;99.90;;;;;;5053679;28;20020;-47
2023/06/25 05:57:02;;;;;;;;;;;20.20;99.90;;;;;;5053973;28;19982;-48
2023/06/25 05:59:28;;;;;;;;;;;20.30;99.90;;;;;;5053857;28;19921;-47
2023/06/25 06:01:53;;;;;;;;;;;20.30;99.90;;;;;;5036440;28;19924;-47
2023/06/25 06:04:19;;;;;;;;;;;20.30;99.90;;;;;;5036255;28;19921;-47
2023/06/25 06:06:44;;;;;;;;;;;20.40;99.90;;;;;;5036126;28;19920;-47
2023/06/25 06:09:10;;;;;;;;;;;20.40;99.90;;;;;;5053857;28;19921;-47
2023/06/25 06:11:35;;;;;;;;;;;20.50;99.90;;;;;;5053947;28;19963;-48
2023/06/25 06:14:01;;;;;;;;;;;20.50;99.90;;;;;;5053848;28;19920;-48
2023/06/25 06:16:27;;;;;;;;;;;20.60;99.90;;;;;;5019728;28;20018;-48
2023/06/25 06:18:52;;;;;;;;;;;20.70;99.90;;;;;;5053942;28;19940;-47
2023/06/25 06:21:18;;;;;;;;;;;20.80;99.90;;;;;;5053517;28;20035;-48
2023/06/25 06:23:43;;;;;;;;;;;20.80;99.90;;;;;;5035686;28;19925;-47
2023/06/25 06:26:09;;;;;;;;;;;20.90;99.90;;;;;;5053950;28;20388;-47
2023/06/25 06:28:34;;;;;;;;;;;20.90;99.90;;;;;;5054996;28;19920;-48
2023/06/25 06:31:00;;;;;;;;;;;21.00;99.90;;;;;;5039987;28;20439;-47
2023/06/25 06:33:25;;;;;;;;;;;21.10;99.90;;;;;;5057467;28;19921;-47
2023/06/25 06:35:51;;;;;;;;;;;21.20;99.90;;;;;;5039788;28;20023;-48
2023/06/25 06:38:17;;;;;;;;;;;21.30;99.90;;;;;;5057272;28;19950;-48
2023/06/25 06:40:42;;;;;;;;;;;21.40;99.90;;;;;;5039859;28;19971;-48
2023/06/25 06:43:08;;;;;;;;;;;21.40;99.90;;;;;;5057402;28;19920;-47
2023/06/25 06:45:33;;;;;;;;;;;21.50;99.90;;;;;;5057323;28;19928;-48
2023/06/25 06:47:59;;;;;;;;;;;21.60;99.90;;;;;;5039731;28;19928;-48
2023/06/25 06:50:24;;;;;;;;;;;21.70;99.90;;;;;;5056973;28;19924;-48
2023/06/25 06:52:50;;;;;;;;;;;21.90;99.90;;;;;;5039132;28;19921;-49
2023/06/25 06:55:16;;;;;;;;;;;22.00;99.90;;;;;;5057147;28;20338;-48
2023/06/25 06:57:41;;;;;;;;;;;22.10;99.90;;;;;;5056946;28;19943;-47
2023/06/25 07:00:09;;;;;;;;;;;22.20;99.90;;;;;;5056988;28;19927;-52
2023/06/25 07:02:34;;;;;;;;;;;22.20;99.90;;;;;;5039443;28;19929;-49
2023/06/25 07:05:00;;;;;;;;;;;22.30;99.90;;;;;;5039308;28;20016;-48
2023/06/25 07:07:26;;;;;;;;;;;22.30;99.90;;;;;;5056879;28;19921;-48
2023/06/25 07:09:53;;;;;;;;;;;22.40;99.90;;;;;;5056934;28;19921;-48
2023/06/25 07:12:19;;;;;;;;;;;22.50;99.90;;;;;;5057275;28;19921;-48
2023/06/25 07:14:45;;;;;;;;;;;22.70;99.90;;;;;;5056777;28;19921;-49
2023/06/25 07:17:11;;;;;;;;;;;22.90;99.90;;;;;;5056655;28;20339;-49
2023/06/25 07:19:36;;;;;;;;;;;23.00;99.90;;;;;;5056544;28;20019;-48
2023/06/25 07:22:02;;;;;;;;;;;23.10;99.90;;;;;;5056409;28;20016;-48
2023/06/25 07:24:27;;;;;;;;;;;23.20;99.90;;;;;;5039084;28;19927;-48
2023/06/25 07:26:53;;;;;;;;;;;23.30;99.90;;;;;;5056656;28;19920;-49
2023/06/25 07:29:19;;;;;;;;;;;23.60;99.90;;;;;;5056478;28;20421;-50
2023/06/25 07:31:44;;;;;;;;;;;24.00;99.90;;;;;;5056329;28;20265;-48
2023/06/25 07:34:10;;;;;;;;;;;24.10;99.90;;;;;;5056418;28;19920;-48
2023/06/25 07:36:36;;;;;;;;;;;24.00;99.90;;;;;;5056182;28;20291;-49
2023/06/25 07:39:04;;;;;;;;;;;24.00;99.90;;;;;;5056344;28;19921;-48
2023/06/25 07:41:30;;;;;;;;;;;23.90;99.90;;;;;;5038444;28;20398;-48
2023/06/25 07:43:55;;;;;;;;;;;23.90;99.90;;;;;;5056307;28;19921;-48
2023/06/25 07:46:21;;;;;;;;;;;23.80;99.90;;;;;;5056175;28;19928;-48
2023/06/25 07:48:47;;;;;;;;;;;23.80;99.90;;;;;;5055969;28;19921;-48
2023/06/25 07:51:13;;;;;;;;;;;23.80;99.90;;;;;;5056608;28;19921;-48
2023/06/25 07:53:38;;;;;;;;;;;23.80;99.90;;;;;;5038306;28;20306;-48
2023/06/25 07:56:04;;;;;;;;;;;23.80;99.90;;;;;;5055994;28;19921;-49
2023/06/25 07:58:29;;;;;;;;;;;23.70;99.90;;;;;;5056104;28;19927;-48
2023/06/25 08:00:55;;;;;;;;;;;23.80;99.90;;;;;;5055923;28;20367;-47
2023/06/25 08:03:22;;;;;;;;;;;23.80;99.90;;;;;;5055724;28;20338;-48
2023/06/25 08:05:47;;;;;;;;;;;23.80;99.90;;;;;;5055615;28;20010;-48
2023/06/25 08:08:13;;;;;;;;;;;23.80;99.90;;;;;;5055862;28;19921;-48
2023/06/25 08:10:39;;;;;;;;;;;23.80;99.90;;;;;;5055686;28;19928;-48
2023/06/25 08:13:04;;;;;;;;;;;23.90;99.90;;;;;;5055647;28;19924;-48
2023/06/25 08:15:30;;;;;;;;;;;23.90;99.90;;;;;;5055828;28;20431;-48
2023/06/25 08:17:55;;;;;;;;;;;23.90;99.90;;;;;;5055567;28;19921;-49
2023/06/25 08:20:21;;;;;;;;;;;23.90;99.90;;;;;;5055454;28;20016;-49
2023/06/25 08:22:46;;;;;;;;;;;24.00;99.90;;;;;;5055598;28;19920;-48
2023/06/25 08:25:19;;;;;;;;;;;24.00;99.90;;;;;;5055497;28;19925;-48
2023/06/25 08:27:45;;;;;;;;;;;24.00;99.90;;;;;;5055450;28;19920;-48
2023/06/25 08:30:10;;;;;;;;;;;24.10;99.90;;;;;;5055424;28;20282;-48
2023/06/25 08:32:36;;;;;;;;;;;24.10;99.90;;;;;;5055195;28;20367;-48
2023/06/25 08:35:02;;;;;;;;;;;24.10;99.90;;;;;;5055105;28;19978;-49
2023/06/25 08:37:28;;;;;;;;;;;24.10;99.90;;;;;;5055217;28;19920;-48
2023/06/25 08:39:53;;;;;;;;;;;24.10;99.90;;;;;;5037657;28;19921;-48
2023/06/25 08:42:19;;;;;;;;;;;24.20;99.90;;;;;;5055135;28;19921;-48
2023/06/25 08:44:44;;;;;;;;;;;24.20;99.90;;;;;;5054944;28;19962;-49
2023/06/25 08:47:11;;;;;;;;;;;24.20;99.90;;;;;;5054784;28;19927;-48
2023/06/25 08:49:38;;;;;;;;;;;24.20;99.90;;;;;;5054927;28;19921;-48
2023/06/25 08:52:04;;;;;;;;;;;24.20;99.90;;;;;;5054637;28;19920;-48
2023/06/25 08:54:30;;;;;;;;;;;24.20;99.90;;;;;;5054919;28;20375;-49
2023/06/25 08:56:55;;;;;;;;;;;24.30;99.90;;;;;;5037070;28;19921;-48
2023/06/25 08:59:21;;;;;;;;;;;24.30;99.90;;;;;;5054676;28;20085;-49
2023/06/25 09:01:47;;;;;;;;;;;24.40;99.90;;;;;;5054743;28;19927;-50
2023/06/25 09:04:12;;;;;;;;;;;24.30;99.90;;;;;;5054705;28;19924;-48
2023/06/25 09:06:41;;;;;;;;;;;24.40;99.90;;;;;;5036859;28;20007;-49
2023/06/25 09:09:10;;;;;;;;;;;24.40;99.90;;;;;;5054690;28;20015;-49
2023/06/25 09:11:39;;;;;;;;;;;24.40;99.90;;;;;;5054609;28;20017;-49
2023/06/25 09:14:05;;;;;;;;;;;24.50;99.90;;;;;;5054580;28;19921;-49
2023/06/25 09:16:31;;;;;;;;;;;24.50;99.90;;;;;;5054476;28;19921;-48
2023/06/25 09:18:56;;;;;;;;;;;24.50;99.90;;;;;;5054440;28;19921;-48
2023/06/25 09:21:22;;;;;;;;;;;24.50;99.90;;;;;;5054519;28;19970;-48
2023/06/25 09:23:53;;;;;;;;;;;24.60;99.90;;;;;;5054445;28;19921;-48
2023/06/25 09:26:19;;;;;;;;;;;24.60;99.90;;;;;;5054387;28;20363;-48
2023/06/25 09:28:49;;;;;;;;;;;24.60;99.90;;;;;;5054334;28;19920;-48
2023/06/25 09:31:17;;;;;;;;;;;24.70;99.90;;;;;;5054131;28;19966;-48
2023/06/25 09:33:48;;;;;;;;;;;24.70;99.90;;;;;;5054262;28;19990;-49
2023/06/25 09:36:14;;;;;;;;;;;24.80;99.90;;;;;;5054500;28;19982;-49
2023/06/25 09:38:42;;;;;;;;;;;24.80;99.90;;;;;;5020177;28;19920;-50
2023/06/25 09:41:08;;;;;;;;;;;24.90;99.90;;;;;;5054089;28;19974;-48
2023/06/25 09:43:34;;;;;;;;;;;25.00;99.90;;;;;;5054157;28;19924;-48
2023/06/25 09:46:01;;;;;;;;;;;25.00;99.90;;;;;;5053794;28;19976;-49
2023/06/25 09:48:27;;;;;;;;;;;25.00;99.90;;;;;;5036640;28;19921;-50
2023/06/25 09:50:55;;;;;;;;;;;25.10;99.90;;;;;;5054027;28;19936;-49
2023/06/25 09:53:21;;;;;;;;;;;25.00;99.90;;;;;;5054013;28;19986;-49
2023/06/25 09:55:47;;;;;;;;;;;25.10;99.90;;;;;;5053875;28;19928;-48
2023/06/25 09:58:14;;;;;;;;;;;25.10;99.90;;;;;;5053678;28;19921;-49
2023/06/25 10:00:40;;;;;;;;;;;25.10;99.90;;;;;;5053927;28;19921;-48
2023/06/25 10:03:06;;;;;;;;;;;25.20;99.90;;;;;;5054045;28;19964;-48
2023/06/25 10:05:32;;;;;;;;;;;25.30;99.90;;;;;;5040662;28;19920;-49
2023/06/25 10:07:58;;;;;;;;;;;25.30;99.90;;;;;;5057902;28;19920;-48
2023/06/25 10:10:26;;;;;;;;;;;25.30;99.90;;;;;;5057797;28;19932;-49
2023/06/25 10:12:52;;;;;;;;;;;25.40;99.90;;;;;;5039980;28;19974;-49
2023/06/25 10:15:30;;;;;;;;;;;25.50;99.90;;;;;;5057668;28;19925;-48
2023/06/25 10:18:00;;;;;;;;;;;25.50;99.90;;;;;;5057942;28;19921;-48
2023/06/25 10:20:30;;;;;;;;;;;25.60;99.90;;;;;;5057778;28;19920;-49
2023/06/25 10:23:06;;;;;;;;;;;25.70;99.90;;;;;;5057794;28;19927;-50
2023/06/25 10:25:32;;;;;;;;;;;25.80;99.90;;;;;;5057535;28;19921;-49
2023/06/25 10:28:05;;;;;;;;;;;25.90;99.90;;;;;;5057755;28;19921;-49
2023/06/25 10:30:40;;;;;;;;;;;26.00;99.90;;;;;;5057694;28;19975;-48
2023/06/25 10:33:06;;;;;;;;;;;26.10;99.90;;;;;;5057391;28;19967;-49
2023/06/25 10:35:35;;;;;;;;;;;26.20;99.90;;;;;;5039601;28;20330;-48
2023/06/25 10:38:01;;;;;;;;;;;26.30;99.90;;;;;;5057498;28;20359;-51
2023/06/25 10:40:31;;;;;;;;;;;26.40;99.90;;;;;;5057498;28;19920;-49
2023/06/25 10:42:57;;;;;;;;;;;26.50;99.90;;;;;;5057348;28;20426;-49
2023/06/25 10:45:23;;;;;;;;;;;26.60;99.90;;;;;;5057405;28;19920;-49
2023/06/25 10:47:48;;;;;;;;;;;26.70;99.90;;;;;;5057472;28;19928;-49
2023/06/25 10:50:17;;;;;;;;;;;26.80;99.90;;;;;;5057347;28;19921;-52
2023/06/25 10:52:43;;;;;;;;;;;27.00;99.90;;;;;;5056920;28;19924;-50
2023/06/25 10:55:08;;;;;;;;;;;27.00;99.90;;;;;;5057467;28;19928;-49
2023/06/25 10:57:34;;;;;;;;;;;27.10;99.90;;;;;;5057193;28;19921;-53
2023/06/25 11:00:00;;;;;;;;;;;27.20;99.90;;;;;;5057120;28;19975;-50
2023/06/25 11:02:25;;;;;;;;;;;27.40;99.90;;;;;;5056967;28;19928;-49
2023/06/25 11:04:52;;;;;;;;;;;27.50;99.90;;;;;;5056831;28;20291;-49
2023/06/25 11:07:18;;;;;;;;;;;27.60;99.90;;;;;;5056806;28;19921;-50
2023/06/25 11:09:45;;;;;;;;;;;27.80;99.90;;;;;;5056978;28;19974;-50
2023/06/25 11:12:10;;;;;;;;;;;27.90;99.90;;;;;;5056837;28;19921;-50
2023/06/25 11:14:36;;;;;;;;;;;28.00;99.90;;;;;;5038685;28;19920;-49
2023/06/25 11:17:01;;;;;;;;;;;28.10;99.90;;;;;;5056823;28;20395;-51
2023/06/25 11:19:28;;;;;;;;;;;28.20;99.90;;;;;;5039369;28;19964;-49
2023/06/25 11:21:54;;;;;;;;;;;28.20;99.90;;;;;;5056568;28;19920;-49
2023/06/25 11:24:20;;;;;;;;;;;28.30;99.90;;;;;;5056771;28;19974;-49
2023/06/25 11:26:46;;;;;;;;;;;28.50;99.90;;;;;;5056590;28;19982;-49
2023/06/25 11:29:12;;;;;;;;;;;28.60;99.90;;;;;;5057015;28;19924;-54
2023/06/25 11:31:44;;;;;;;;;;;28.60;99.90;;;;;;5038808;28;20441;-53
2023/06/25 11:34:30;;;;;;;;;;;28.70;99.90;;;;;;5056541;28;19921;-53
2023/06/25 11:36:56;;;;;;;;;;;28.70;99.90;;;;;;5055756;28;19974;-52
2023/06/25 11:39:21;;;;;;;;;;;28.80;99.90;;;;;;5056392;28;20330;-53
2023/06/25 11:41:47;;;;;;;;;;;28.90;99.90;;;;;;5056603;28;19921;-52
2023/06/25 11:44:16;;;;;;;;;;;29.00;99.90;;;;;;5056243;28;19929;-50
2023/06/25 11:46:42;;;;;;;;;;;29.00;99.90;;;;;;5056287;28;19921;-51
2023/06/25 11:49:08;;;;;;;;;;;29.10;99.90;;;;;;5056001;28;20008;-53
2023/06/25 11:51:34;;;;;;;;;;;29.20;99.90;;;;;;5056194;28;20343;-54
2023/06/25 11:53:59;;;;;;;;;;;29.30;99.60;;;;;;5056015;28;19927;-53
2023/06/25 11:56:25;;;;;;;;;;;29.40;99.60;;;;;;5056095;28;19920;-51
2023/06/25 11:58:50;;;;;;;;;;;29.50;99.90;;;;;;5055677;28;19920;-50
2023/06/25 12:01:17;;;;;;;;;;;29.50;99.90;;;;;;5056004;28;19968;-50
2023/06/25 12:03:43;;;;;;;;;;;29.60;99.70;;;;;;5055727;28;19982;-50
2023/06/25 12:06:08;;;;;;;;;;;29.70;99.00;;;;;;5038431;28;19920;-52
2023/06/25 12:08:34;;;;;;;;;;;29.70;99.90;;;;;;5055948;28;19920;-53
2023/06/25 12:10:59;;;;;;;;;;;29.80;98.30;;;;;;5055847;28;20344;-54
2023/06/25 12:13:25;;;;;;;;;;;29.80;93.30;;;;;;5055540;28;20007;-54
2023/06/25 12:15:50;;;;;;;;;;;29.90;93.90;;;;;;5055610;28;19973;-53
2023/06/25 12:18:16;;;;;;;;;;;29.90;95.50;;;;;;5037904;28;19928;-53
2023/06/25 12:20:42;;;;;;;;;;;30.00;97.10;;;;;;5055381;28;19925;-53
2023/06/25 12:23:07;;;;;;;;;;;30.00;94.90;;;;;;5038116;28;19920;-51
2023/06/25 12:25:33;;;;;;;;;;;30.00;95.90;;;;;;5055153;28;19920;-53
2023/06/25 12:27:58;;;;;;;;;;;30.10;91.80;;;;;;5054856;28;19921;-54
2023/06/25 12:30:25;;;;;;;;;;;30.10;94.10;;;;;;5055471;28;20375;-54
2023/06/25 12:32:50;;;;;;;;;;;30.20;93.40;;;;;;5055156;28;19921;-53
2023/06/25 12:35:16;;;;;;;;;;;30.20;92.90;;;;;;5055056;28;19974;-49
2023/06/25 12:37:42;;;;;;;;;;;30.30;94.80;;;;;;5055282;28;19927;-49
2023/06/25 12:40:08;;;;;;;;;;;30.40;95.10;;;;;;5037767;28;20003;-50
2023/06/25 12:42:34;;;;;;;;;;;30.40;95.40;;;;;;5055344;28;19928;-51
2023/06/25 12:45:00;;;;;;;;;;;30.30;93.70;;;;;;5055191;28;19921;-48
2023/06/25 12:47:25;;;;;;;;;;;30.10;93.10;;;;;;5054878;28;19920;-48
2023/06/25 12:49:51;;;;;;;;;;;30.00;89.90;;;;;;5037332;28;19920;-48
2023/06/25 12:52:16;;;;;;;;;;;30.10;92.40;;;;;;5054926;28;19927;-48
2023/06/25 12:54:43;;;;;;;;;;;30.20;93.10;;;;;;5054786;28;19948;-48
2023/06/25 12:57:08;;;;;;;;;;;30.20;93.50;;;;;;5054823;28;19943;-48
2023/06/25 12:59:34;;;;;;;;;;;30.30;92.70;;;;;;5054551;28;19921;-48
2023/06/25 13:02:00;;;;;;;;;;;30.40;92.60;;;;;;5054695;28;19921;-49
2023/06/25 13:04:25;;;;;;;;;;;30.50;92.90;;;;;;5054749;28;20325;-48
2023/06/25 13:06:51;;;;;;;;;;;30.50;92.50;;;;;;5054673;28;20363;-45
2023/06/25 13:09:17;;;;;;;;;;;30.60;93.40;;;;;;5054621;28;19959;-59
2023/06/25 13:11:42;;;;;;;;;;;30.70;93.40;;;;;;5054495;28;19932;-57
2023/06/25 13:14:08;;;;;;;;;;;30.70;92.30;;;;;;5054670;28;19920;-57
2023/06/25 13:16:35;;;;;;;;;;;30.80;91.70;;;;;;5054349;28;19974;-57
2023/06/25 13:19:00;;;;;;;;;;;30.80;92.00;;;;;;5054298;28;19920;-58
2023/06/25 13:21:26;;;;;;;;;;;30.80;88.20;;;;;;5054539;28;20015;-57
2023/06/25 13:23:51;;;;;;;;;;;30.90;91.00;;;;;;5054874;28;19921;-58
2023/06/25 13:26:17;;;;;;;;;;;30.80;89.30;;;;;;5036868;28;20422;-58
2023/06/25 13:28:42;;;;;;;;;;;30.80;90.20;;;;;;5054266;28;19932;-57
2023/06/25 13:31:08;;;;;;;;;;;30.90;90.20;;;;;;5054214;28;19920;-57
2023/06/25 13:33:33;;;;;;;;;;;30.90;91.50;;;;;;5054214;28;20375;-57
2023/06/25 13:35:59;;;;;;;;;;;30.90;88.70;;;;;;5054287;28;19921;-58
2023/06/25 13:38:25;;;;;;;;;;;30.90;88.20;;;;;;5054151;28;19921;-57
2023/06/25 13:40:50;;;;;;;;;;;30.90;90.20;;;;;;5054181;28;20331;-57
2023/06/25 13:43:16;;;;;;;;;;;30.90;90.90;;;;;;5054064;28;20380;-57
2023/06/25 13:45:41;;;;;;;;;;;30.90;87.90;;;;;;5036520;28;20257;-58
2023/06/25 13:48:07;;;;;;;;;;;30.90;81.60;;;;;;5054129;28;19921;-58
2023/06/25 13:50:32;;;;;;;;;;;30.90;79.50;;;;;;5054115;28;19931;-58
2023/06/25 13:52:58;;;;;;;;;;;30.90;81.20;;;;;;5053874;28;19921;-58
2023/06/25 13:55:23;;;;;;;;;;;31.00;79.20;;;;;;5053915;28;19924;-58
2023/06/25 13:57:49;;;;;;;;;;;31.00;83.00;;;;;;5053802;28;19968;-58
2023/06/25 14:00:15;;;;;;;;;;;31.00;76.60;;;;;;5054046;28;19935;-58
2023/06/25 14:02:44;;;;;;;;;;;31.10;80.90;;;;;;5053780;28;20269;-58
2023/06/25 14:05:10;;;;;;;;;;;31.00;80.90;;;;;;5054253;28;19927;-58
2023/06/25 14:07:35;;;;;;;;;;;31.10;79.60;;;;;;5053983;28;19921;-58
2023/06/25 14:10:01;;;;;;;;;;;31.10;79.50;;;;;;5053907;28;19920;-58